Terminal Aerodrome Forecast
Issued by NWS Wakefield, VA

Home | Current Version | Previous Version | Text Only | Print | Product List | Glossary On
Versions: 1 2 3 4 5 6 7 8 9 10 11
000
FTUS41 KAKQ 282300
TAFECG
TAF
KECG 282320Z 2900/2924 23007KT P6SM BKN050 OVC090
     FM290700 02010KT 3SM -RA BR OVC008
     FM291200 04010KT 3SM -RA BR OVC007=

USA.gov is the U.S. government's official web portal to all federal, state and local government web resources and services.